Time;durP1;ratioP1;P1;durP2;ratioP2;P2;SDS_P1;SDS_P2;PMS_P1;PMS_P2;Temp;Humidity;BMP_temperature;BMP_pressure;BME280_temperature;BME280_humidity;BME280_pressure;Samples;Min_cycle;Max_cycle;Signal;HPM_P1;HPM_P2
2023/04/27 00:02:15;;;;;;;3.67;2.80;;;17.00;60.10;18.00;101115.00;;;;5028484;28;20184;-48
2023/04/27 00:04:41;;;;;;;4.13;2.90;;;17.10;60.20;18.00;101105.00;;;;5028371;28;20229;-49
2023/04/27 00:07:07;;;;;;;3.43;2.70;;;17.00;60.10;18.00;101110.00;;;;5028697;28;20182;-47
2023/04/27 00:09:33;;;;;;;3.27;2.60;;;17.00;60.10;18.00;101111.00;;;;5028935;28;20208;-49
2023/04/27 00:12:00;;;;;;;4.53;2.97;;;17.00;60.20;18.00;101120.00;;;;5032139;28;20182;-49
2023/04/27 00:14:27;;;;;;;3.50;2.73;;;17.00;60.40;18.00;101126.00;;;;5040357;28;20254;-49
2023/04/27 00:16:53;;;;;;;3.30;3.00;;;17.00;60.30;18.00;101116.00;;;;5031561;28;20237;-49
2023/04/27 00:19:19;;;;;;;3.10;2.60;;;16.90;60.30;18.00;101118.00;;;;5029786;28;20197;-48
2023/04/27 00:21:45;;;;;;;4.63;2.73;;;17.00;60.50;17.90;101115.00;;;;5028595;28;20248;-48
2023/04/27 00:24:11;;;;;;;4.27;2.67;;;16.90;60.40;17.90;101110.00;;;;5031042;28;20170;-48
2023/04/27 00:26:37;;;;;;;3.33;2.60;;;16.90;60.30;17.90;101109.00;;;;5033556;28;20201;-49
2023/04/27 00:29:02;;;;;;;3.40;2.93;;;16.90;60.40;17.90;101120.00;;;;5026277;28;20280;-48
2023/04/27 00:31:28;;;;;;;3.63;2.40;;;16.90;60.40;17.90;101117.00;;;;5028153;28;20230;-49
2023/04/27 00:33:54;;;;;;;3.43;2.50;;;16.90;60.30;17.90;101116.00;;;;5028247;28;20597;-49
2023/04/27 00:36:20;;;;;;;3.90;2.70;;;16.90;60.40;17.90;101115.00;;;;5028254;28;20243;-49
2023/04/27 00:38:46;;;;;;;3.30;2.33;;;16.80;60.30;17.90;101118.00;;;;5028087;28;20200;-49
2023/04/27 00:41:12;;;;;;;3.00;2.70;;;16.90;60.50;17.90;101119.00;;;;5027026;28;20190;-48
2023/04/27 00:43:42;;;;;;;2.90;2.60;;;16.90;60.40;17.90;101118.00;;;;5027771;28;20250;-49
2023/04/27 00:46:08;;;;;;;2.70;2.50;;;16.90;60.40;17.90;101117.00;;;;5028261;28;20721;-48
2023/04/27 00:48:34;;;;;;;3.30;2.57;;;16.90;60.30;17.90;101126.00;;;;5028368;28;20199;-48
2023/04/27 00:51:00;;;;;;;2.80;2.50;;;16.90;60.40;17.90;101124.00;;;;5026701;28;20194;-47
2023/04/27 00:53:25;;;;;;;3.30;2.47;;;16.80;60.10;17.80;101131.00;;;;5027722;28;20536;-48
2023/04/27 00:55:51;;;;;;;2.63;2.43;;;16.80;60.30;17.90;101133.00;;;;5032383;28;20171;-48
2023/04/27 00:58:17;;;;;;;2.93;2.63;;;16.80;60.30;17.90;101130.00;;;;5033472;28;20198;-49
2023/04/27 01:00:43;;;;;;;2.83;2.37;;;16.80;60.30;17.80;101125.00;;;;5026614;28;20246;-49
2023/04/27 01:03:08;;;;;;;3.20;2.50;;;16.90;60.30;17.80;101121.00;;;;5027657;28;20179;-50
2023/04/27 01:05:35;;;;;;;3.03;2.60;;;16.80;60.20;17.80;101126.00;;;;5027876;28;20175;-49
2023/04/27 01:08:02;;;;;;;3.20;2.50;;;16.70;60.10;17.80;101123.00;;;;5027688;28;20214;-50
2023/04/27 01:10:27;;;;;;;2.60;2.40;;;16.70;60.10;17.80;101119.00;;;;5027864;28;20203;-47
2023/04/27 01:12:53;;;;;;;3.07;2.50;;;16.80;60.20;17.80;101130.00;;;;5027724;28;20181;-48
2023/04/27 01:15:19;;;;;;;2.70;2.50;;;16.80;60.30;17.80;101125.00;;;;5027760;28;20632;-48
2023/04/27 01:17:45;;;;;;;2.70;2.50;;;16.70;60.30;17.50;101051.00;;;;5027715;28;20171;-49
2023/04/27 01:20:11;;;;;;;3.07;2.23;;;16.70;60.20;17.70;101122.00;;;;5027553;28;20182;-49
2023/04/27 01:22:37;;;;;;;2.50;2.30;;;16.70;60.50;17.70;101071.00;;;;5027555;28;20183;-49
2023/04/27 01:25:03;;;;;;;2.57;2.37;;;16.70;60.40;17.70;101128.00;;;;5027432;28;20313;-48
2023/04/27 01:27:28;;;;;;;2.73;2.50;;;16.70;60.50;17.70;101120.00;;;;5027620;28;20217;-48
2023/04/27 01:29:54;;;;;;;3.40;2.50;;;16.60;60.40;17.70;101119.00;;;;5027390;28;20216;-48
2023/04/27 01:32:20;;;;;;;2.60;2.40;;;16.70;60.40;17.70;101110.00;;;;5027894;28;20171;-49
2023/04/27 01:34:46;;;;;;;2.50;2.30;;;16.60;60.40;17.70;101118.00;;;;5027398;28;20204;-49
2023/04/27 01:37:12;;;;;;;2.73;2.40;;;16.60;60.40;17.70;101125.00;;;;5027649;28;20182;-49
2023/04/27 01:39:37;;;;;;;2.70;2.50;;;16.60;60.30;17.70;101119.00;;;;5028192;28;20203;-48
2023/04/27 01:42:03;;;;;;;2.50;2.30;;;16.60;60.40;17.70;101114.00;;;;5031191;28;20194;-48
2023/04/27 01:44:29;;;;;;;2.50;2.30;;;16.60;60.30;17.70;101109.00;;;;5030977;28;20244;-49
2023/04/27 01:46:55;;;;;;;2.40;2.20;;;16.60;60.30;17.70;101116.00;;;;5030763;28;20210;-49
2023/04/27 01:49:21;;;;;;;2.53;2.33;;;16.60;60.30;17.70;101112.00;;;;5030909;28;20207;-48
2023/04/27 01:51:46;;;;;;;2.87;2.60;;;16.60;60.40;17.70;101123.00;;;;5030887;28;20258;-49
2023/04/27 01:54:12;;;;;;;2.60;2.40;;;16.60;60.30;17.70;101122.00;;;;5030397;28;20198;-49
2023/04/27 01:56:38;;;;;;;2.60;2.40;;;16.60;60.30;17.60;101136.00;;;;5030871;28;20175;-49
2023/04/27 01:59:03;;;;;;;3.50;2.93;;;16.60;60.70;17.60;101135.00;;;;5030884;28;20210;-50
2023/04/27 02:01:30;;;;;;;2.60;2.30;;;16.50;60.70;17.60;101142.00;;;;5030875;28;20174;-49
2023/04/27 02:03:56;;;;;;;2.63;2.23;;;16.50;60.70;17.60;101147.00;;;;5027765;28;20184;-48
2023/04/27 02:06:21;;;;;;;2.57;2.37;;;16.50;60.70;17.60;101144.00;;;;5025496;28;20198;-48
2023/04/27 02:08:47;;;;;;;2.50;2.30;;;16.50;60.70;17.60;101141.00;;;;5040777;28;20649;-49
2023/04/27 02:11:13;;;;;;;2.40;2.20;;;16.50;60.70;17.60;101147.00;;;;5041642;28;20179;-49
2023/04/27 02:13:38;;;;;;;2.50;2.30;;;16.50;60.70;17.60;101149.00;;;;5032344;28;20194;-48
2023/04/27 02:16:05;;;;;;;2.57;2.37;;;16.50;60.60;17.60;101145.00;;;;5033289;28;20175;-48
2023/04/27 02:18:31;;;;;;;2.60;2.40;;;16.50;60.60;17.60;101143.00;;;;5024892;28;20204;-48
2023/04/27 02:20:57;;;;;;;2.33;2.20;;;16.50;60.60;17.50;101143.00;;;;5032195;28;20216;-48
2023/04/27 02:23:23;;;;;;;2.50;2.30;;;16.50;60.60;17.50;101143.00;;;;5033101;28;20191;-49
2023/04/27 02:25:48;;;;;;;2.60;2.40;;;16.50;60.50;17.50;101057.00;;;;5039782;28;20199;-49
2023/04/27 02:28:14;;;;;;;3.40;2.50;;;16.50;60.50;17.50;101143.00;;;;5030902;28;20199;-48
2023/04/27 02:30:40;;;;;;;3.17;2.40;;;16.40;60.30;17.50;101137.00;;;;5029175;28;20712;-48
2023/04/27 02:33:06;;;;;;;2.50;2.30;;;16.40;60.20;17.50;101146.00;;;;5030283;28;20175;-48
2023/04/27 02:35:32;;;;;;;2.60;2.40;;;16.40;60.20;17.50;101141.00;;;;5030132;28;20209;-48
2023/04/27 02:37:58;;;;;;;2.50;2.30;;;16.40;60.20;17.40;101134.00;;;;5029743;28;20259;-48
2023/04/27 02:40:24;;;;;;;2.13;2.03;;;16.40;60.10;17.40;101131.00;;;;5030472;28;20665;-47
2023/04/27 02:42:50;;;;;;;2.40;2.20;;;16.30;60.00;17.40;101137.00;;;;5021751;28;20249;-48
2023/04/27 02:45:16;;;;;;;2.50;2.30;;;16.40;60.20;17.40;101134.00;;;;5029951;28;20280;-47
2023/04/27 02:47:41;;;;;;;2.60;2.40;;;16.30;60.10;17.30;101140.00;;;;5029960;28;20797;-48
2023/04/27 02:50:08;;;;;;;2.30;2.10;;;16.30;60.10;17.30;101141.00;;;;5030002;28;20234;-47
2023/04/27 02:52:33;;;;;;;2.60;2.40;;;16.30;60.10;17.30;101149.00;;;;5029467;28;20186;-47
2023/04/27 02:54:59;;;;;;;2.50;2.30;;;16.30;60.10;17.30;101123.00;;;;5029853;28;20205;-49
2023/04/27 02:57:26;;;;;;;2.60;2.40;;;16.30;60.10;17.30;101128.00;;;;5030202;28;20603;-47
2023/04/27 02:59:52;;;;;;;2.40;2.20;;;16.30;60.10;17.30;101140.00;;;;5028509;28;20211;-48
2023/04/27 03:02:17;;;;;;;2.40;2.20;;;16.20;60.00;17.20;101127.00;;;;5029462;28;20179;-49
2023/04/27 03:04:43;;;;;;;2.60;2.40;;;16.20;60.00;17.20;101125.00;;;;5029255;28;20251;-48
2023/04/27 03:07:10;;;;;;;2.50;2.30;;;16.20;60.00;17.20;101114.00;;;;5029836;28;20179;-47
2023/04/27 03:09:36;;;;;;;2.43;2.20;;;16.20;60.00;17.20;101119.00;;;;5029311;28;20210;-49
2023/04/27 03:12:03;;;;;;;2.40;2.20;;;16.20;60.00;17.10;101118.00;;;;5029455;28;20221;-49
2023/04/27 03:14:29;;;;;;;2.43;2.23;;;16.20;60.00;17.20;101112.00;;;;5029153;28;20175;-48
2023/04/27 03:16:56;;;;;;;2.40;2.20;;;16.10;60.00;17.10;101119.00;;;;5029402;28;20523;-49
2023/04/27 03:19:22;;;;;;;2.60;2.40;;;16.10;60.00;17.10;101115.00;;;;5029771;28;20320;-47
2023/04/27 03:21:47;;;;;;;2.40;2.20;;;16.10;60.10;17.10;101037.00;;;;5025774;28;20725;-48
2023/04/27 03:24:13;;;;;;;2.60;2.40;;;16.10;60.00;17.10;101107.00;;;;5028297;28;20272;-48
2023/04/27 03:26:39;;;;;;;2.63;2.20;;;16.10;60.00;17.10;101112.00;;;;5033730;28;20719;-49
2023/04/27 03:29:05;;;;;;;2.67;2.47;;;16.10;60.80;17.00;101118.00;;;;5029103;28;20269;-47
2023/04/27 03:31:31;;;;;;;3.33;2.30;;;16.00;59.90;17.00;101120.00;;;;5029296;28;20211;-48
2023/04/27 03:33:57;;;;;;;3.17;2.27;;;16.10;60.30;17.00;101122.00;;;;5029162;28;20683;-48
2023/04/27 03:36:22;;;;;;;3.83;2.40;;;16.10;60.90;17.00;101114.00;;;;5029099;28;20720;-48
2023/04/27 03:38:48;;;;;;;3.17;2.60;;;16.10;60.70;17.00;101127.00;;;;5028987;28;20222;-48
2023/04/27 03:41:14;;;;;;;4.10;2.20;;;16.10;60.50;17.00;101114.00;;;;5029168;28;20626;-48
2023/04/27 03:43:39;;;;;;;4.10;2.27;;;16.10;61.10;17.00;101123.00;;;;5028598;28;20248;-48
2023/04/27 03:46:05;;;;;;;2.43;2.23;;;16.00;60.30;17.00;101122.00;;;;5017711;28;20188;-49
2023/04/27 03:48:31;;;;;;;2.93;2.40;;;16.00;60.30;17.00;101124.00;;;;4995274;28;20222;-48
2023/04/27 03:50:57;;;;;;;2.67;2.47;;;16.00;60.10;16.90;101119.00;;;;5029286;28;20203;-49
2023/04/27 03:53:22;;;;;;;3.13;2.47;;;16.00;60.00;16.90;101119.00;;;;5028580;28;20865;-47
2023/04/27 03:55:48;;;;;;;2.80;2.60;;;16.00;59.90;16.90;101105.00;;;;5029325;28;20183;-47
2023/04/27 03:58:16;;;;;;;2.93;2.70;;;15.90;59.70;16.80;101121.00;;;;5031057;28;20252;-47
2023/04/27 04:00:41;;;;;;;3.40;2.80;;;15.90;59.70;16.80;101122.00;;;;5029368;28;20185;-47
2023/04/27 04:03:07;;;;;;;4.17;2.80;;;15.90;59.70;16.80;101125.00;;;;5029475;28;20178;-47
2023/04/27 04:05:33;;;;;;;3.47;3.00;;;15.90;59.60;16.80;101124.00;;;;5029674;28;20265;-47
2023/04/27 04:07:59;;;;;;;3.10;2.80;;;15.90;59.50;16.80;101130.00;;;;5029982;28;20190;-48
2023/04/27 04:10:24;;;;;;;3.30;3.00;;;15.90;59.40;16.70;101129.00;;;;5024194;28;20720;-47
2023/04/27 04:12:51;;;;;;;3.93;2.80;;;15.80;59.20;16.70;101137.00;;;;5029547;28;20187;-46
2023/04/27 04:15:17;;;;;;;3.73;3.30;;;15.80;59.20;16.70;101144.00;;;;5030447;28;20175;-47
2023/04/27 04:17:43;;;;;;;5.90;3.23;;;15.80;59.10;16.70;101153.00;;;;5029541;28;20179;-46
2023/04/27 04:20:10;;;;;;;3.33;3.00;;;15.80;59.10;16.70;101149.00;;;;5032153;28;20244;-47
2023/04/27 04:22:36;;;;;;;3.60;3.00;;;15.70;59.00;16.70;101152.00;;;;5044070;28;20182;-48
2023/04/27 04:25:03;;;;;;;4.23;3.40;;;15.80;59.00;16.60;101148.00;;;;5027733;28;20191;-48
2023/04/27 04:27:29;;;;;;;3.77;3.20;;;15.70;58.80;16.60;101148.00;;;;5029922;28;20194;-48
2023/04/27 04:29:54;;;;;;;4.30;3.03;;;15.70;58.90;16.60;101142.00;;;;5029315;28;20703;-47
2023/04/27 04:32:21;;;;;;;3.63;3.23;;;15.70;58.80;16.60;101148.00;;;;5029146;28;20258;-48
2023/04/27 04:34:50;;;;;;;4.33;3.30;;;15.70;58.80;16.60;101158.00;;;;5028211;28;20171;-48
2023/04/27 04:37:17;;;;;;;3.87;3.20;;;15.70;58.70;16.60;101157.00;;;;5028877;28;20187;-47
2023/04/27 04:39:43;;;;;;;5.20;3.40;;;15.70;58.60;16.60;101151.00;;;;5028609;28;20202;-48
2023/04/27 04:42:09;;;;;;;8.57;3.80;;;15.70;59.40;16.60;101154.00;;;;5029726;28;20265;-47
2023/04/27 04:44:35;;;;;;;8.03;3.40;;;15.70;58.90;16.60;101150.00;;;;5028962;28;20634;-48
2023/04/27 04:47:01;;;;;;;5.80;3.50;;;15.70;58.90;16.60;101162.00;;;;5027594;28;20191;-49
2023/04/27 04:49:26;;;;;;;9.57;3.63;;;15.70;58.80;16.60;101158.00;;;;5028961;28;20207;-49
2023/04/27 04:51:52;;;;;;;7.63;3.50;;;15.60;58.70;16.60;101164.00;;;;5028032;28;20646;-47
2023/04/27 04:54:18;;;;;;;4.10;3.30;;;15.60;58.80;16.60;101164.00;;;;5028332;28;20175;-47
2023/04/27 04:56:44;;;;;;;4.83;3.30;;;15.60;58.80;16.60;101156.00;;;;5028650;28;20187;-47
2023/04/27 04:59:10;;;;;;;7.20;3.37;;;15.60;58.80;16.60;101159.00;;;;5029115;28;20205;-47
2023/04/27 05:01:36;;;;;;;4.60;3.43;;;15.60;58.80;16.60;101079.00;;;;5029112;28;20187;-45
2023/04/27 05:04:01;;;;;;;3.40;3.10;;;15.60;58.90;16.50;101161.00;;;;5028349;28;20183;-47
2023/04/27 05:06:28;;;;;;;4.00;2.97;;;15.60;58.90;16.50;101167.00;;;;5027619;28;20190;-48
2023/04/27 05:08:53;;;;;;;5.87;3.30;;;15.60;58.90;16.50;101171.00;;;;5028111;28;20237;-51
2023/04/27 05:11:20;;;;;;;3.50;3.20;;;15.60;58.90;16.50;101160.00;;;;5029199;28;20221;-46
2023/04/27 05:13:46;;;;;;;3.67;3.30;;;15.60;58.80;16.50;101173.00;;;;5028974;28;20258;-46
2023/04/27 05:16:12;;;;;;;5.60;2.93;;;15.60;58.90;16.50;101166.00;;;;5032063;28;20741;-47
2023/04/27 05:18:38;;;;;;;3.93;3.30;;;15.50;58.90;16.50;101176.00;;;;5032383;28;20226;-47
2023/04/27 05:21:04;;;;;;;4.57;3.10;;;15.50;58.80;16.50;101172.00;;;;5033160;28;20214;-47
2023/04/27 05:23:30;;;;;;;5.23;3.17;;;15.50;59.00;16.50;101184.00;;;;5032030;28;20187;-47
2023/04/27 05:25:55;;;;;;;3.47;3.17;;;15.50;59.20;16.50;101180.00;;;;5031986;28;20288;-47
2023/04/27 05:28:21;;;;;;;6.17;2.90;;;15.50;59.30;16.40;101177.00;;;;5032153;28;20210;-48
2023/04/27 05:30:47;;;;;;;3.63;3.00;;;15.50;59.40;16.40;101188.00;;;;5032431;28;20344;-47
2023/04/27 05:33:12;;;;;;;10.33;3.10;;;15.50;59.40;16.40;101169.00;;;;5034453;28;20182;-50
2023/04/27 05:35:38;;;;;;;4.50;2.70;;;15.50;59.40;16.40;101191.00;;;;5032241;28;20178;-47
2023/04/27 05:38:04;;;;;;;4.40;2.80;;;15.50;59.40;16.40;101190.00;;;;5031805;28;20199;-47
2023/04/27 05:40:30;;;;;;;3.23;2.80;;;15.50;59.40;16.40;101184.00;;;;5032518;28;20195;-47
2023/04/27 05:42:55;;;;;;;3.50;3.00;;;15.50;59.40;16.30;101183.00;;;;5032434;28;20262;-47
2023/04/27 05:45:21;;;;;;;4.87;2.97;;;15.50;59.50;16.30;101186.00;;;;5032337;28;20179;-48
2023/04/27 05:47:47;;;;;;;3.80;3.00;;;15.50;59.80;16.30;101186.00;;;;5031648;28;20191;-48
2023/04/27 05:50:13;;;;;;;4.10;3.07;;;15.50;59.90;16.30;101193.00;;;;5031372;28;20214;-47
2023/04/27 05:52:38;;;;;;;7.07;3.17;;;15.60;60.10;16.40;101186.00;;;;5033365;28;20203;-48
2023/04/27 05:55:06;;;;;;;3.17;2.87;;;15.60;60.20;16.40;101196.00;;;;5041630;28;20188;-47
2023/04/27 05:57:32;;;;;;;3.70;2.57;;;15.70;60.20;16.40;101206.00;;;;5047259;28;20179;-49
2023/04/27 05:59:59;;;;;;;3.23;2.70;;;15.70;60.00;16.50;101196.00;;;;5041030;28;20272;-47
2023/04/27 06:02:25;;;;;;;3.00;2.70;;;15.80;59.90;16.50;101202.00;;;;5033260;28;20206;-48
2023/04/27 06:04:51;;;;;;;3.80;3.00;;;15.90;60.10;16.60;101191.00;;;;5031721;28;20217;-51
2023/04/27 06:07:16;;;;;;;4.30;2.90;;;15.90;60.00;16.60;101207.00;;;;5034590;28;20680;-47
2023/04/27 06:09:42;;;;;;;5.40;2.83;;;16.10;60.10;16.70;101208.00;;;;5040552;28;20207;-48
2023/04/27 06:12:08;;;;;;;7.10;2.90;;;16.30;60.10;16.80;101204.00;;;;5032283;28;20190;-47
2023/04/27 06:14:35;;;;;;;6.67;3.00;;;16.40;60.00;16.90;101208.00;;;;5030117;28;20183;-48
2023/04/27 06:17:01;;;;;;;11.67;2.80;;;16.50;59.90;17.00;101207.00;;;;5032163;28;20238;-48
2023/04/27 06:19:27;;;;;;;8.50;3.03;;;16.60;60.00;17.10;101212.00;;;;5031753;28;20199;-48
2023/04/27 06:21:53;;;;;;;7.40;3.23;;;16.60;60.30;17.10;101216.00;;;;5036034;28;20190;-48
2023/04/27 06:24:19;;;;;;;10.33;3.50;;;16.70;60.60;17.20;101219.00;;;;5039393;28;20178;-48
2023/04/27 06:26:45;;;;;;;15.10;3.10;;;16.80;61.10;17.30;101209.00;;;;5030787;28;20692;-47
2023/04/27 06:29:11;;;;;;;9.00;3.30;;;16.90;61.60;17.30;101207.00;;;;5031934;28;20195;-46
2023/04/27 06:31:37;;;;;;;6.43;3.20;;;17.00;61.70;17.40;101197.00;;;;5033673;28;20179;-47
2023/04/27 06:34:03;;;;;;;8.60;3.57;;;17.00;61.60;17.50;101198.00;;;;5035536;28;20190;-48
2023/04/27 06:36:30;;;;;;;7.20;3.10;;;17.10;61.60;17.50;101206.00;;;;5025688;28;20179;-47
2023/04/27 06:38:55;;;;;;;10.73;3.10;;;17.20;61.70;17.50;101203.00;;;;5030160;28;20191;-48
2023/04/27 06:41:25;;;;;;;7.03;3.30;;;17.20;61.80;17.60;101191.00;;;;5031277;28;20182;-48
2023/04/27 06:43:51;;;;;;;12.63;3.30;;;17.20;61.90;17.60;101210.00;;;;5027488;28;20231;-49
2023/04/27 06:46:16;;;;;;;9.13;3.40;;;17.20;62.20;17.60;101199.00;;;;5046378;28;20265;-48
2023/04/27 06:48:42;;;;;;;15.00;3.70;;;17.20;62.20;17.70;101210.00;;;;5045686;28;20198;-48
2023/04/27 06:51:08;;;;;;;8.03;3.80;;;17.20;62.30;17.70;101206.00;;;;5033947;28;20577;-48
2023/04/27 06:53:34;;;;;;;6.03;3.17;;;17.20;62.60;17.70;101207.00;;;;5032520;28;20193;-48
2023/04/27 06:55:59;;;;;;;9.23;3.57;;;17.20;62.80;17.70;101211.00;;;;5030357;28;20206;-47
2023/04/27 06:58:26;;;;;;;7.27;3.50;;;17.20;62.80;17.70;101209.00;;;;5028164;28;20199;-48
2023/04/27 07:00:52;;;;;;;6.77;3.60;;;17.10;62.70;17.50;101209.00;;;;5032062;28;20190;-47
2023/04/27 07:03:18;;;;;;;7.07;3.20;;;17.10;62.70;17.70;101208.00;;;;5033352;28;20181;-47
2023/04/27 07:05:43;;;;;;;8.87;3.50;;;17.20;62.80;17.70;101210.00;;;;5030832;28;20183;-46
2023/04/27 07:08:09;;;;;;;6.33;3.40;;;17.10;62.60;17.70;101207.00;;;;5030742;28;20195;-49
2023/04/27 07:10:35;;;;;;;7.70;3.47;;;17.10;62.50;17.70;101209.00;;;;5030688;28;20207;-49
2023/04/27 07:13:00;;;;;;;7.67;3.80;;;17.10;62.10;17.80;101210.00;;;;5030476;28;20243;-47
2023/04/27 07:15:26;;;;;;;8.53;3.80;;;17.10;61.90;17.70;101211.00;;;;5031121;28;20179;-45
2023/04/27 07:17:55;;;;;;;6.63;3.70;;;17.10;61.60;17.70;101203.00;;;;5030200;28;20182;-47
2023/04/27 07:20:21;;;;;;;7.87;3.37;;;17.10;61.50;17.70;101197.00;;;;5030493;28;20179;-49
2023/04/27 07:22:46;;;;;;;6.10;3.60;;;17.10;61.60;17.70;101203.00;;;;5030377;28;20186;-47
2023/04/27 07:25:12;;;;;;;6.07;3.37;;;17.00;61.60;17.70;101200.00;;;;5030280;28;20729;-46
2023/04/27 07:27:38;;;;;;;4.63;3.03;;;17.00;61.60;17.70;101195.00;;;;5030555;28;20195;-48
2023/04/27 07:30:07;;;;;;;6.80;3.40;;;17.00;61.70;17.70;101199.00;;;;5028953;28;20230;-47
2023/04/27 07:32:33;;;;;;;6.63;3.20;;;17.00;61.80;17.70;101194.00;;;;5037206;28;20183;-48
2023/04/27 07:34:59;;;;;;;5.27;3.37;;;17.00;61.80;17.70;101210.00;;;;5034498;28;20638;-49
2023/04/27 07:37:25;;;;;;;6.67;3.00;;;17.00;61.90;17.70;101193.00;;;;5029183;28;20262;-47
2023/04/27 07:39:52;;;;;;;8.33;3.17;;;17.00;61.90;17.70;101195.00;;;;5030107;28;20289;-48
2023/04/27 07:42:18;;;;;;;7.07;2.77;;;17.00;62.10;17.70;101199.00;;;;5030087;28;20266;-47
2023/04/27 07:44:44;;;;;;;7.23;2.90;;;17.00;62.10;17.70;101200.00;;;;5029591;28;20195;-47
2023/04/27 07:47:09;;;;;;;9.20;3.33;;;17.00;62.10;17.70;101209.00;;;;5029848;28;20242;-47
2023/04/27 07:49:36;;;;;;;5.33;2.90;;;16.90;62.10;17.70;101198.00;;;;5029675;28;20206;-48
2023/04/27 07:52:03;;;;;;;5.90;3.17;;;16.90;62.10;17.70;101208.00;;;;5028944;28;20175;-46
2023/04/27 07:54:29;;;;;;;8.33;2.90;;;17.00;62.20;17.70;101218.00;;;;5030507;28;20264;-48
2023/04/27 07:56:55;;;;;;;5.43;2.90;;;16.90;62.10;17.40;101202.00;;;;5027955;28;20607;-49
2023/04/27 07:59:20;;;;;;;9.87;3.00;;;16.90;62.20;17.60;101207.00;;;;5024656;28;20222;-49
2023/04/27 08:01:46;;;;;;;4.13;2.73;;;17.00;62.30;17.60;101197.00;;;;5029511;28;20304;-48
2023/04/27 08:04:12;;;;;;;7.27;3.13;;;16.90;62.30;17.60;101203.00;;;;5023384;28;20185;-46
2023/04/27 08:06:38;;;;;;;6.27;3.00;;;16.90;62.30;17.60;101196.00;;;;5029874;28;20550;-47
2023/04/27 08:09:04;;;;;;;5.63;2.60;;;16.90;62.40;17.60;101198.00;;;;5030187;28;20211;-47
2023/04/27 08:11:30;;;;;;;5.63;3.03;;;16.90;62.40;17.60;101193.00;;;;5035979;28;20167;-48
2023/04/27 08:13:56;;;;;;;4.47;2.93;;;16.90;62.50;17.60;101195.00;;;;5034184;28;20558;-47
2023/04/27 08:16:21;;;;;;;7.43;3.10;;;16.90;62.50;17.60;101189.00;;;;5031696;28;20178;-48
2023/04/27 08:18:48;;;;;;;6.20;2.83;;;16.80;62.40;17.60;101186.00;;;;5030510;28;20206;-48
2023/04/27 08:21:14;;;;;;;5.80;2.90;;;16.80;62.40;17.60;101182.00;;;;5031216;28;20489;-47
2023/04/27 08:23:41;;;;;;;4.83;2.87;;;16.80;62.50;17.60;101174.00;;;;5031088;28;20258;-46
2023/04/27 08:26:06;;;;;;;3.90;2.60;;;16.90;62.70;17.60;101185.00;;;;5037954;28;20199;-48
2023/04/27 08:28:32;;;;;;;3.40;2.53;;;16.80;62.50;17.60;101187.00;;;;5044310;28;20628;-47
2023/04/27 08:30:58;;;;;;;4.13;2.70;;;16.80;62.50;17.60;101184.00;;;;5029886;28;20210;-48
2023/04/27 08:33:24;;;;;;;4.50;2.67;;;16.90;62.70;17.60;101178.00;;;;5029270;28;20641;-46
2023/04/27 08:35:52;;;;;;;4.40;2.47;;;16.80;63.30;17.60;101172.00;;;;5029855;28;20680;-48
2023/04/27 08:38:18;;;;;;;6.40;2.60;;;16.80;62.70;17.60;101175.00;;;;5029844;28;20285;-47
2023/04/27 08:40:44;;;;;;;3.00;2.50;;;16.80;62.70;17.30;101164.00;;;;5029748;28;20191;-46
2023/04/27 08:43:10;;;;;;;5.00;2.80;;;16.80;62.70;17.60;101164.00;;;;5029715;28;20237;-46
2023/04/27 08:45:35;;;;;;;3.63;2.87;;;16.80;62.70;17.50;101173.00;;;;5028479;28;20552;-47
2023/04/27 08:48:01;;;;;;;4.67;2.70;;;16.80;62.70;17.60;101164.00;;;;5028489;28;20175;-46
2023/04/27 08:50:27;;;;;;;5.47;2.87;;;16.80;62.80;17.60;101173.00;;;;5033638;28;20233;-47
2023/04/27 08:52:53;;;;;;;3.67;2.83;;;16.80;62.80;17.60;101166.00;;;;5043753;28;20178;-48
2023/04/27 08:55:18;;;;;;;3.10;2.67;;;16.80;62.80;17.60;101167.00;;;;5036139;28;20186;-48
2023/04/27 08:57:55;;;;;;;4.87;2.70;;;16.80;62.90;17.60;101175.00;;;;5028360;28;20191;-50
2023/04/27 09:00:21;;;;;;;4.40;2.57;;;16.70;62.80;17.60;101164.00;;;;5034549;28;20174;-46
2023/04/27 09:02:47;;;;;;;3.67;2.43;;;16.80;62.90;17.60;101176.00;;;;5015759;28;20248;-47
2023/04/27 09:05:17;;;;;;;3.60;2.40;;;16.70;62.80;17.60;101172.00;;;;5033545;28;20179;-49
2023/04/27 09:08:00;;;;;;;5.13;2.30;;;16.70;62.90;17.60;101180.00;;;;5033797;28;20202;-47
2023/04/27 09:10:28;;;;;;;2.93;2.33;;;16.80;63.10;17.60;101167.00;;;;5033672;28;20199;-47
2023/04/27 09:12:58;;;;;;;3.77;2.40;;;16.70;62.90;17.60;101136.00;;;;5033231;28;20467;-46
2023/04/27 09:15:23;;;;;;;3.73;2.33;;;16.80;63.10;17.60;101164.00;;;;5032045;28;20181;-47
2023/04/27 09:17:54;;;;;;;2.57;2.37;;;16.80;63.10;17.60;101160.00;;;;5034164;28;20175;-49
2023/04/27 09:20:20;;;;;;;2.63;2.03;;;16.80;63.10;17.60;101165.00;;;;5045394;28;20178;-48
2023/04/27 09:22:51;;;;;;;4.43;2.77;;;16.70;62.90;17.60;101163.00;;;;5045488;28;20175;-51
2023/04/27 09:25:28;;;;;;;2.60;2.40;;;16.70;62.90;17.60;101157.00;;;;5036496;28;20258;-47
2023/04/27 09:27:55;;;;;;;3.83;2.43;;;16.70;62.90;17.60;101155.00;;;;5026002;28;20187;-47
2023/04/27 09:30:20;;;;;;;3.00;2.33;;;16.70;62.90;17.60;101151.00;;;;5033410;28;20203;-47
2023/04/27 09:32:57;;;;;;;2.73;2.47;;;16.80;62.90;17.60;101161.00;;;;5033208;28;20547;-47
2023/04/27 09:35:26;;;;;;;2.63;2.00;;;16.80;62.90;17.60;101160.00;;;;5033484;28;20193;-49
2023/04/27 09:37:52;;;;;;;2.40;2.20;;;16.70;62.80;17.60;101156.00;;;;5033166;28;20594;-47
2023/04/27 09:40:23;;;;;;;2.80;2.60;;;16.80;62.90;17.60;101162.00;;;;5033314;28;20175;-47
2023/04/27 09:42:49;;;;;;;3.00;2.23;;;16.80;63.10;17.60;101154.00;;;;5033118;28;20194;-46
2023/04/27 09:45:14;;;;;;;4.10;2.40;;;16.80;62.90;17.60;101145.00;;;;5032086;28;20253;-48
2023/04/27 09:47:40;;;;;;;2.40;2.20;;;16.80;62.90;17.60;101142.00;;;;5033506;28;20178;-46
2023/04/27 09:50:07;;;;;;;3.10;2.30;;;16.80;62.90;17.70;101148.00;;;;5034109;28;20689;-46
2023/04/27 09:52:32;;;;;;;2.60;2.40;;;16.80;62.90;17.70;101151.00;;;;5012971;28;20254;-48
2023/04/27 09:54:59;;;;;;;2.20;2.00;;;16.80;62.90;17.70;101133.00;;;;5032082;28;20191;-47
2023/04/27 09:57:29;;;;;;;2.60;2.40;;;16.80;62.90;17.70;101139.00;;;;5031575;28;20253;-48
2023/04/27 10:00:19;;;;;;;2.77;2.23;;;16.80;63.00;17.70;101149.00;;;;5033193;28;20249;-47
2023/04/27 10:03:01;;;;;;;3.10;2.60;;;16.90;63.10;17.70;101140.00;;;;5032184;28;20225;-48
2023/04/27 10:05:47;;;;;;;2.60;2.30;;;16.80;63.00;17.70;101136.00;;;;5031517;28;20172;-48
2023/04/27 10:08:13;;;;;;;3.00;2.20;;;16.90;63.10;17.70;101146.00;;;;5031044;28;20309;-47
2023/04/27 10:10:46;;;;;;;3.23;2.43;;;16.80;62.90;17.70;101143.00;;;;5022795;28;20199;-47
2023/04/27 10:13:25;;;;;;;2.90;2.10;;;16.90;63.20;17.70;101131.00;;;;5032657;28;20206;-48
2023/04/27 10:15:51;;;;;;;2.40;2.20;;;16.80;63.10;17.70;101122.00;;;;5036688;28;20567;-49
2023/04/27 10:18:29;;;;;;;2.33;2.13;;;16.80;63.20;17.70;101131.00;;;;5043851;28;20281;-47
2023/04/27 10:20:56;;;;;;;2.47;2.20;;;16.80;63.20;17.70;101119.00;;;;5032009;28;20178;-48
2023/04/27 10:23:25;;;;;;;2.53;2.20;;;16.80;63.20;17.70;101113.00;;;;5034574;28;20712;-49
2023/04/27 10:25:51;;;;;;;2.63;2.13;;;16.80;63.20;17.80;101121.00;;;;5033645;28;20190;-48
2023/04/27 10:28:17;;;;;;;2.30;2.10;;;16.90;63.40;17.80;101109.00;;;;5034550;28;20203;-48
2023/04/27 10:30:45;;;;;;;2.40;2.20;;;16.90;63.40;17.80;101104.00;;;;5036504;28;20223;-48
2023/04/27 10:33:15;;;;;;;2.30;2.13;;;16.90;64.20;17.80;101102.00;;;;5045829;28;20220;-48
2023/04/27 10:35:43;;;;;;;2.57;2.10;;;16.90;63.40;17.80;101104.00;;;;5031551;28;20188;-46
2023/04/27 10:38:09;;;;;;;2.23;2.03;;;16.90;63.40;17.80;101110.00;;;;5032494;28;20186;-48
2023/04/27 10:40:36;;;;;;;3.23;2.10;;;16.90;63.40;17.80;101103.00;;;;5032430;28;20564;-48
2023/04/27 10:43:16;;;;;;;2.40;2.20;;;16.90;63.50;17.80;101094.00;;;;5032454;28;20183;-47
2023/04/27 10:45:43;;;;;;;2.50;2.30;;;16.90;63.60;17.80;101090.00;;;;5032278;28;20539;-46